Time;durP1;ratioP1;P1;durP2;ratioP2;P2;SDS_P1;SDS_P2;PMS_P1;PMS_P2;Temp;Humidity;BMP_temperature;BMP_pressure;BME280_temperature;BME280_humidity;BME280_pressure;Samples;Min_cycle;Max_cycle;Signal;HPM_P1;HPM_P2
2022/12/19 00:00:29;;;;;;;11.27;5.67;;;;;;;;;;10308506;28;20227;-81
2022/12/19 00:05:30;;;;;;;4.80;4.30;;;;;;;;;;10322212;28;20228;-81
2022/12/19 00:10:31;;;;;;;7.73;5.20;;;;;;;;;;10318494;28;20228;-82
2022/12/19 00:15:33;;;;;;;15.90;6.80;;;;;;;;;;10318446;28;20603;-81
2022/12/19 00:20:34;;;;;;;14.33;6.43;;;;;;;;;;10318041;28;20217;-82
2022/12/19 00:25:35;;;;;;;11.33;5.03;;;;;;;;;;10320466;28;20255;-81
2022/12/19 00:30:36;;;;;;;21.83;5.83;;;;;;;;;;10340356;28;20239;-81
2022/12/19 00:35:37;;;;;;;9.17;5.43;;;;;;;;;;10317992;28;20217;-81
2022/12/19 00:40:38;;;;;;;11.90;6.40;;;;;;;;;;10328797;28;20209;-82
2022/12/19 00:45:41;;;;;;;8.73;5.10;;;;;;;;;;10327995;28;20288;-81
2022/12/19 00:50:42;;;;;;;6.23;4.10;;;;;;;;;;10320629;28;20212;-82
2022/12/19 00:55:43;;;;;;;5.23;4.47;;;;;;;;;;10327873;28;20687;-81
2022/12/19 01:00:45;;;;;;;10.87;5.70;;;;;;;;;;10314004;28;20222;-81
2022/12/19 01:05:46;;;;;;;14.23;5.10;;;;;;;;;;10321549;28;20244;-81
2022/12/19 01:10:48;;;;;;;10.97;5.40;;;;;;;;;;10327220;28;20221;-81
2022/12/19 01:15:49;;;;;;;7.83;3.93;;;;;;;;;;10325341;28;20232;-81
2022/12/19 01:20:50;;;;;;;7.50;4.87;;;;;;;;;;10310268;28;20707;-81
2022/12/19 01:25:52;;;;;;;7.50;4.17;;;;;;;;;;10331321;28;20236;-80
2022/12/19 01:30:56;;;;;;;9.87;4.63;;;;;;;;;;10357974;28;21018;-80
2022/12/19 01:36:00;;;;;;;8.17;4.87;;;;;;;;;;10333836;28;20815;-81
2022/12/19 01:41:02;;;;;;;2.57;2.37;;;;;;;;;;10342056;28;20220;-81
2022/12/19 01:46:05;;;;;;;8.73;4.70;;;;;;;;;;10330687;28;20237;-80
2022/12/19 01:51:15;;;;;;;10.07;3.93;;;;;;;;;;10327506;28;20828;-81
2022/12/19 01:56:21;;;;;;;2.53;2.43;;;;;;;;;;10305913;28;20239;-81
2022/12/19 02:01:23;;;;;;;7.97;4.93;;;;;;;;;;10324044;28;20239;-81
2022/12/19 02:06:25;;;;;;;10.07;4.87;;;;;;;;;;10324245;28;20217;-81
2022/12/19 02:11:26;;;;;;;13.77;5.33;;;;;;;;;;10328857;28;20244;-81
2022/12/19 02:16:48;;;;;;;3.87;3.33;;;;;;;;;;10322466;28;20719;-81
2022/12/19 02:21:52;;;;;;;7.37;3.97;;;;;;;;;;10308719;28;20212;-81
2022/12/19 02:26:54;;;;;;;9.20;5.27;;;;;;;;;;10319709;28;20220;-81
2022/12/19 02:31:56;;;;;;;3.73;2.77;;;;;;;;;;10353835;28;20219;-80
2022/12/19 02:37:17;;;;;;;5.97;3.33;;;;;;;;;;10327293;28;20209;-81
2022/12/19 02:42:28;;;;;;;9.90;4.50;;;;;;;;;;10305022;28;20351;-81
2022/12/19 02:47:31;;;;;;;13.00;4.40;;;;;;;;;;10322272;28;20217;-81
2022/12/19 02:52:34;;;;;;;8.10;3.67;;;;;;;;;;10319619;28;20671;-80
2022/12/19 02:57:45;;;;;;;3.97;2.47;;;;;;;;;;10310500;28;20221;-81
2022/12/19 03:02:50;;;;;;;6.73;3.87;;;;;;;;;;10318298;28;20213;-82
2022/12/19 03:07:53;;;;;;;9.17;3.70;;;;;;;;;;10342093;28;20311;-81
2022/12/19 03:13:02;;;;;;;10.73;4.10;;;;;;;;;;10336355;28;20234;-80
2022/12/19 03:18:03;;;;;;;8.63;3.77;;;;;;;;;;10338453;28;20219;-81
2022/12/19 03:23:04;;;;;;;6.13;3.80;;;;;;;;;;10334056;28;20257;-81
2022/12/19 03:28:09;;;;;;;7.03;3.80;;;;;;;;;;10317601;28;20239;-80
2022/12/19 03:33:11;;;;;;;8.93;3.73;;;;;;;;;;10328281;28;20259;-81
2022/12/19 03:38:13;;;;;;;7.53;4.03;;;;;;;;;;10313115;28;20225;-81
2022/12/19 03:43:16;;;;;;;9.82;5.10;;;;;;;;;;10299175;28;20236;-81
2022/12/19 03:48:30;;;;;;;2.33;2.17;;;;;;;;;;10310381;28;20217;-80
2022/12/19 03:53:31;;;;;;;8.93;2.97;;;;;;;;;;10325378;28;20221;-81
2022/12/19 03:58:35;;;;;;;4.03;1.70;;;;;;;;;;10300708;28;1046039;-80
2022/12/19 04:03:36;;;;;;;6.30;3.97;;;;;;;;;;10322469;28;20225;-80
2022/12/19 04:08:38;;;;;;;6.67;4.20;;;;;;;;;;10314463;28;20251;-81
2022/12/19 04:13:47;;;;;;;4.57;2.45;;;;;;;;;;10324545;28;20758;-81
2022/12/19 04:18:52;;;;;;;2.97;2.70;;;;;;;;;;10324144;28;20229;-81
2022/12/19 04:23:57;;;;;;;6.00;3.43;;;;;;;;;;10339932;28;20224;-80
2022/12/19 04:29:01;;;;;;;10.87;3.03;;;;;;;;;;10354027;28;20662;-81
2022/12/19 04:34:02;;;;;;;7.13;4.17;;;;;;;;;;10306454;28;20235;-80
2022/12/19 04:39:03;;;;;;;6.53;4.07;;;;;;;;;;10321365;28;20593;-80
2022/12/19 04:44:04;;;;;;;2.58;1.45;;;;;;;;;;10329474;28;20643;-81
2022/12/19 04:49:05;;;;;;;4.70;3.03;;;;;;;;;;10314540;28;20641;-81
2022/12/19 04:54:06;;;;;;;4.82;2.95;;;;;;;;;;10313949;28;20250;-80
2022/12/19 04:59:08;;;;;;;9.73;2.63;;;;;;;;;;10327973;28;20252;-81
2022/12/19 05:04:09;;;;;;;3.60;2.45;;;;;;;;;;10325395;28;20339;-81
2022/12/19 05:09:11;;;;;;;7.53;3.17;;;;;;;;;;10312139;28;20205;-81
2022/12/19 05:14:12;;;;;;;5.07;2.33;;;;;;;;;;10319661;28;20227;-82
2022/12/19 05:19:13;;;;;;;6.88;3.20;;;;;;;;;;10311757;28;20280;-80
2022/12/19 05:24:14;;;;;;;7.15;3.75;;;;;;;;;;10328282;28;20217;-80
2022/12/19 05:29:16;;;;;;;3.28;2.75;;;;;;;;;;10318942;28;20251;-80
2022/12/19 05:34:17;;;;;;;5.70;3.58;;;;;;;;;;10316785;28;20237;-80
2022/12/19 05:39:18;;;;;;;6.30;2.90;;;;;;;;;;10316108;28;20219;-80
2022/12/19 05:44:19;;;;;;;9.85;3.65;;;;;;;;;;10315351;28;20264;-81
2022/12/19 05:49:20;;;;;;;3.97;1.83;;;;;;;;;;10323615;28;20217;-80
2022/12/19 05:54:21;;;;;;;6.28;2.60;;;;;;;;;;10298963;28;20217;-79
2022/12/19 05:59:22;;;;;;;4.32;2.95;;;;;;;;;;10307721;28;20946;-80
2022/12/19 06:04:24;;;;;;;9.85;2.17;;;;;;;;;;10319767;28;20212;-80
2022/12/19 06:09:25;;;;;;;6.85;3.42;;;;;;;;;;10309425;28;20216;-80
2022/12/19 06:14:26;;;;;;;5.90;2.97;;;;;;;;;;10308669;28;20248;-80
2022/12/19 06:19:28;;;;;;;4.70;3.88;;;;;;;;;;10308662;28;20216;-80
2022/12/19 06:24:29;;;;;;;6.43;3.78;;;;;;;;;;10308442;28;20225;-80
2022/12/19 06:29:30;;;;;;;2.88;2.70;;;;;;;;;;10315653;28;20213;-81
2022/12/19 06:34:32;;;;;;;7.93;3.97;;;;;;;;;;10334746;28;20291;-81
2022/12/19 06:39:33;;;;;;;9.33;4.60;;;;;;;;;;10318466;28;20213;-81
2022/12/19 06:44:34;;;;;;;10.02;4.70;;;;;;;;;;10312734;28;20231;-80
2022/12/19 06:49:35;;;;;;;8.80;4.55;;;;;;;;;;10311652;28;20721;-81
2022/12/19 06:54:36;;;;;;;9.75;3.40;;;;;;;;;;10311700;28;20315;-80
2022/12/19 06:59:37;;;;;;;5.90;3.42;;;;;;;;;;10326731;28;20233;-79
2022/12/19 07:04:41;;;;;;;4.13;3.53;;;;;;;;;;10300425;28;20472;-79
2022/12/19 07:09:42;;;;;;;6.47;4.13;;;;;;;;;;10291766;28;20213;-79
2022/12/19 07:14:43;;;;;;;4.68;3.05;;;;;;;;;;10303563;28;20507;-80
2022/12/19 07:19:44;;;;;;;6.40;4.45;;;;;;;;;;10303736;28;20311;-80
2022/12/19 07:24:45;;;;;;;13.47;5.33;;;;;;;;;;10299752;28;20256;-79
2022/12/19 07:29:47;;;;;;;6.85;4.50;;;;;;;;;;10306632;28;20224;-80
2022/12/19 07:34:48;;;;;;;6.20;4.15;;;;;;;;;;10319346;28;20469;-80
2022/12/19 07:39:49;;;;;;;7.35;4.13;;;;;;;;;;10300681;28;20787;-80
2022/12/19 07:44:50;;;;;;;7.10;4.77;;;;;;;;;;10299456;28;20224;-79
2022/12/19 07:49:51;;;;;;;9.27;4.80;;;;;;;;;;10282576;28;20216;-79
2022/12/19 07:54:52;;;;;;;8.10;4.20;;;;;;;;;;10291045;28;20216;-79
2022/12/19 07:59:53;;;;;;;7.05;4.57;;;;;;;;;;10291892;28;20621;-78
2022/12/19 08:04:54;;;;;;;5.88;3.63;;;;;;;;;;10292269;28;20299;-79
2022/12/19 08:09:55;;;;;;;10.18;4.47;;;;;;;;;;10287416;28;20224;-80
2022/12/19 08:14:56;;;;;;;5.13;4.32;;;;;;;;;;10287083;28;20224;-79
2022/12/19 08:19:58;;;;;;;7.43;4.80;;;;;;;;;;10291430;28;20244;-80
2022/12/19 08:24:59;;;;;;;14.13;5.05;;;;;;;;;;10291264;28;20230;-79
2022/12/19 08:30:00;;;;;;;4.03;2.88;;;;;;;;;;10292501;28;20213;-78
2022/12/19 08:35:01;;;;;;;9.52;5.03;;;;;;;;;;10294426;28;20653;-78
2022/12/19 08:40:02;;;;;;;6.10;4.32;;;;;;;;;;10317483;28;20234;-77
2022/12/19 08:45:03;;;;;;;5.45;4.93;;;;;;;;;;10331853;28;20742;-79
2022/12/19 08:50:05;;;;;;;7.40;3.35;;;;;;;;;;10313147;28;20192;-79
2022/12/19 08:55:07;;;;;;;10.05;5.55;;;;;;;;;;10317901;28;20299;-78
2022/12/19 09:00:08;;;;;;;6.97;4.65;;;;;;;;;;10344578;28;20216;-80
2022/12/19 09:05:09;;;;;;;8.73;5.10;;;;;;;;;;10336513;28;20196;-79
2022/12/19 09:10:10;;;;;;;9.43;5.60;;;;;;;;;;10289778;28;20603;-77
2022/12/19 09:15:11;;;;;;;9.00;5.70;;;;;;;;;;10343528;28;20217;-78
2022/12/19 09:20:12;;;;;;;11.45;5.18;;;;;;;;;;10299072;28;20174;-78
2022/12/19 09:25:14;;;;;;;8.20;4.65;;;;;;;;;;10303714;28;20203;-79
2022/12/19 09:30:15;;;;;;;10.13;4.95;;;;;;;;;;10300343;28;20658;-78
2022/12/19 09:35:16;;;;;;;9.88;5.25;;;;;;;;;;10298167;28;20241;-79
2022/12/19 09:40:17;;;;;;;7.50;4.88;;;;;;;;;;10299945;28;20182;-79
2022/12/19 09:45:40;;;;;;;9.15;4.80;;;;;;;;;;10296585;28;20208;-79
2022/12/19 09:50:49;;;;;;;11.07;6.15;;;;;;;;;;10302304;28;20700;-78
2022/12/19 09:55:51;;;;;;;8.60;4.82;;;;;;;;;;10288815;28;20250;-78
2022/12/19 10:00:56;;;;;;;8.43;3.13;;;;;;;;;;10283227;28;20231;-77
2022/12/19 10:05:57;;;;;;;10.68;4.55;;;;;;;;;;10298439;28;20255;-78
2022/12/19 10:11:00;;;;;;;10.13;4.47;;;;;;;;;;10288552;28;20217;-79
2022/12/19 10:16:13;;;;;;;11.50;5.70;;;;;;;;;;10316956;28;20685;-79
2022/12/19 10:21:20;;;;;;;14.23;6.55;;;;;;;;;;10287372;28;20411;-79
2022/12/19 10:26:21;;;;;;;13.43;5.82;;;;;;;;;;10313283;28;20307;-78
2022/12/19 10:31:29;;;;;;;8.60;5.57;;;;;;;;;;10311376;28;20275;-78
2022/12/19 10:36:31;;;;;;;14.55;6.97;;;;;;;;;;10300479;28;20217;-79
2022/12/19 10:41:33;;;;;;;10.25;5.53;;;;;;;;;;10294813;28;20724;-79
2022/12/19 10:46:42;;;;;;;11.90;5.70;;;;;;;;;;10313835;28;20722;-76
2022/12/19 10:51:57;;;;;;;11.50;6.15;;;;;;;;;;10301995;28;20260;-79
2022/12/19 10:57:17;;;;;;;11.88;5.35;;;;;;;;;;10307210;28;20220;-77
2022/12/19 11:02:29;;;;;;;11.68;6.68;;;;;;;;;;10319345;28;20287;-78
2022/12/19 11:07:30;;;;;;;11.68;6.47;;;;;;;;;;10305334;28;20709;-78
2022/12/19 11:12:32;;;;;;;14.23;7.40;;;;;;;;;;10302329;28;20335;-80
2022/12/19 11:17:33;;;;;;;15.05;8.15;;;;;;;;;;10302566;28;20661;-77
2022/12/19 11:22:35;;;;;;;12.15;5.93;;;;;;;;;;10302069;28;20217;-79
2022/12/19 11:27:36;;;;;;;13.93;7.10;;;;;;;;;;10305256;28;20296;-78
2022/12/19 11:32:39;;;;;;;13.75;6.50;;;;;;;;;;10318288;28;20707;-78
2022/12/19 11:37:59;;;;;;;11.57;5.88;;;;;;;;;;10317695;28;20225;-77
2022/12/19 11:43:20;;;;;;;17.45;8.02;;;;;;;;;;10298812;28;20216;-79
2022/12/19 11:48:31;;;;;;;13.10;6.68;;;;;;;;;;10300067;28;20217;-79
2022/12/19 11:53:35;;;;;;;11.02;6.38;;;;;;;;;;10296998;28;20227;-78
2022/12/19 11:58:36;;;;;;;10.27;6.72;;;;;;;;;;10293836;28;20230;-79
2022/12/19 12:03:44;;;;;;;14.45;7.18;;;;;;;;;;10307905;28;20221;-79
2022/12/19 12:08:48;;;;;;;19.08;6.45;;;;;;;;;;10306059;28;20763;-79
2022/12/19 12:14:08;;;;;;;11.25;4.78;;;;;;;;;;10311943;28;20217;-77
2022/12/19 12:19:26;;;;;;;10.20;6.22;;;;;;;;;;10277266;28;20221;-78
2022/12/19 12:24:36;;;;;;;14.20;8.15;;;;;;;;;;10307641;28;20216;-77
2022/12/19 12:29:46;;;;;;;13.73;7.18;;;;;;;;;;10303389;28;20357;-78
2022/12/19 12:34:53;;;;;;;19.50;8.55;;;;;;;;;;10304578;28;20220;-78
2022/12/19 12:40:13;;;;;;;13.85;7.78;;;;;;;;;;10300881;28;20213;-78
2022/12/19 12:45:35;;;;;;;15.65;8.13;;;;;;;;;;10321645;28;20220;-78
2022/12/19 12:50:38;;;;;;;9.95;6.20;;;;;;;;;;10326060;28;20228;-79
2022/12/19 12:55:41;;;;;;;15.45;7.13;;;;;;;;;;10339941;28;20298;-78
2022/12/19 13:01:02;;;;;;;8.80;5.75;;;;;;;;;;10336763;28;20223;-77
2022/12/19 13:06:06;;;;;;;11.52;7.22;;;;;;;;;;10329716;28;20765;-77
2022/12/19 13:16:44;;;;;;;17.40;8.45;;;;;;;;;;10340089;28;20244;-78
2022/12/19 13:22:14;;;;;;;15.02;6.90;;;;;;;;;;10336390;28;20216;-78
2022/12/19 13:27:18;;;;;;;12.43;7.53;;;;;;;;;;10286647;28;20221;-79
2022/12/19 13:32:20;;;;;;;15.43;8.35;;;;;;;;;;10299525;28;20247;-77
2022/12/19 13:37:25;;;;;;;17.23;7.82;;;;;;;;;;10286542;28;20430;-79
2022/12/19 13:47:47;;;;;;;18.42;8.65;;;;;;;;;;10339445;28;20632;-78
2022/12/19 13:52:49;;;;;;;16.60;8.73;;;;;;;;;;10318369;28;20212;-77
2022/12/19 13:57:53;;;;;;;11.48;7.00;;;;;;;;;;10337018;28;20223;-78
2022/12/19 14:02:55;;;;;;;10.60;6.65;;;;;;;;;;10313902;28;20256;-78
2022/12/19 14:07:57;;;;;;;12.27;7.68;;;;;;;;;;10291659;28;20284;-77
2022/12/19 14:18:20;;;;;;;17.95;8.00;;;;;;;;;;10292943;28;20220;-78
2022/12/19 14:23:21;;;;;;;15.77;7.25;;;;;;;;;;10306459;28;20244;-77
2022/12/19 14:28:26;;;;;;;13.18;7.68;;;;;;;;;;10294879;28;20240;-78
2022/12/19 14:33:38;;;;;;;15.00;7.70;;;;;;;;;;10298682;28;20320;-78
2022/12/19 14:38:40;;;;;;;16.63;7.82;;;;;;;;;;10291706;28;20217;-78
2022/12/19 14:43:53;;;;;;;14.55;7.93;;;;;;;;;;10302885;28;20216;-76
2022/12/19 14:48:55;;;;;;;18.75;8.55;;;;;;;;;;10313013;28;20213;-76
2022/12/19 14:54:03;;;;;;;16.73;8.50;;;;;;;;;;10297012;28;20224;-76
2022/12/19 14:59:04;;;;;;;13.70;7.40;;;;;;;;;;10298407;28;20505;-76
2022/12/19 15:04:08;;;;;;;18.13;9.02;;;;;;;;;;10330653;28;20307;-76
2022/12/19 15:09:13;;;;;;;13.95;7.10;;;;;;;;;;10336624;28;20223;-76
2022/12/19 15:14:14;;;;;;;19.10;8.98;;;;;;;;;;10322313;28;20243;-76
2022/12/19 15:19:15;;;;;;;14.82;8.30;;;;;;;;;;10324284;28;20580;-77
2022/12/19 15:24:16;;;;;;;13.45;8.10;;;;;;;;;;10334609;28;20280;-78
2022/12/19 15:29:17;;;;;;;16.80;8.38;;;;;;;;;;10341094;28;20251;-79
2022/12/19 15:34:26;;;;;;;15.77;9.35;;;;;;;;;;10341287;28;20219;-79
2022/12/19 15:39:29;;;;;;;15.23;8.88;;;;;;;;;;10311232;28;20280;-77
2022/12/19 15:44:34;;;;;;;14.50;8.40;;;;;;;;;;10336323;28;20746;-77
2022/12/19 15:49:35;;;;;;;13.05;7.88;;;;;;;;;;10337125;28;20714;-77
2022/12/19 15:54:36;;;;;;;15.15;8.43;;;;;;;;;;10335943;28;20297;-76
2022/12/19 15:59:43;;;;;;;15.13;9.20;;;;;;;;;;10332282;28;20236;-77
2022/12/19 16:04:45;;;;;;;14.63;8.43;;;;;;;;;;10333428;28;20602;-77
2022/12/19 16:09:47;;;;;;;14.80;8.07;;;;;;;;;;10312956;28;20254;-77
2022/12/19 16:14:52;;;;;;;13.20;8.63;;;;;;;;;;10295681;28;20333;-78
2022/12/19 16:19:53;;;;;;;17.60;9.90;;;;;;;;;;10294597;28;20214;-78
2022/12/19 16:24:56;;;;;;;17.90;8.23;;;;;;;;;;10293501;28;20216;-78
2022/12/19 16:29:58;;;;;;;16.25;9.07;;;;;;;;;;10287103;28;20278;-78
2022/12/19 16:34:59;;;;;;;16.02;7.82;;;;;;;;;;10295660;28;20709;-77
2022/12/19 16:40:00;;;;;;;14.05;7.95;;;;;;;;;;10303155;28;20355;-78
2022/12/19 16:45:02;;;;;;;13.20;8.07;;;;;;;;;;10309877;28;20307;-78
2022/12/19 16:50:10;;;;;;;13.45;7.43;;;;;;;;;;10279173;28;20276;-79
2022/12/19 16:55:12;;;;;;;10.38;6.85;;;;;;;;;;10274350;28;20236;-77
2022/12/19 17:00:15;;;;;;;18.92;9.02;;;;;;;;;;10317244;28;20213;-78
2022/12/19 17:05:23;;;;;;;15.43;8.23;;;;;;;;;;10291147;28;20792;-79
2022/12/19 17:10:29;;;;;;;11.95;7.28;;;;;;;;;;10300320;28;20220;-78
2022/12/19 17:15:32;;;;;;;14.43;7.90;;;;;;;;;;10284587;28;20295;-78
2022/12/19 17:20:36;;;;;;;18.45;8.98;;;;;;;;;;10301876;28;20295;-78
2022/12/19 17:25:37;;;;;;;13.57;6.75;;;;;;;;;;10300828;28;20232;-78
2022/12/19 17:30:39;;;;;;;19.20;8.25;;;;;;;;;;10302425;28;20271;-78
2022/12/19 17:35:40;;;;;;;18.25;9.25;;;;;;;;;;10300931;28;20686;-78
2022/12/19 17:40:42;;;;;;;13.73;8.02;;;;;;;;;;10302828;28;20217;-78
2022/12/19 17:45:43;;;;;;;13.95;8.52;;;;;;;;;;10288671;28;20221;-78
2022/12/19 17:50:44;;;;;;;17.42;8.43;;;;;;;;;;10320015;28;20220;-77
2022/12/19 17:55:46;;;;;;;12.63;7.22;;;;;;;;;;10301025;28;20484;-78
2022/12/19 18:00:48;;;;;;;15.57;7.30;;;;;;;;;;10306616;28;21164;-78
2022/12/19 18:05:50;;;;;;;17.58;7.35;;;;;;;;;;10301173;28;20503;-78
2022/12/19 18:10:52;;;;;;;16.55;7.03;;;;;;;;;;10310610;28;20710;-77
2022/12/19 18:15:55;;;;;;;10.98;7.03;;;;;;;;;;10328247;28;20224;-77
2022/12/19 18:20:58;;;;;;;12.60;9.30;;;;;;;;;;10344551;28;20566;-77
2022/12/19 18:25:59;;;;;;;12.73;7.88;;;;;;;;;;10326369;28;20673;-77
2022/12/19 18:31:03;;;;;;;11.45;7.55;;;;;;;;;;10329932;28;20334;-77
2022/12/19 18:36:05;;;;;;;13.38;8.10;;;;;;;;;;10333463;28;20319;-78
2022/12/19 18:41:08;;;;;;;11.50;7.80;;;;;;;;;;10323758;28;20218;-76
2022/12/19 18:46:14;;;;;;;12.35;6.95;;;;;;;;;;10320360;28;20221;-76
2022/12/19 18:51:16;;;;;;;17.50;8.25;;;;;;;;;;10277939;28;20218;-80
2022/12/19 18:56:18;;;;;;;13.70;8.20;;;;;;;;;;10299926;28;20223;-77
2022/12/19 19:01:20;;;;;;;14.45;8.38;;;;;;;;;;10310527;28;21035;-78
2022/12/19 19:06:26;;;;;;;15.20;8.30;;;;;;;;;;10294869;28;20228;-77
2022/12/19 19:11:28;;;;;;;15.25;8.07;;;;;;;;;;10312277;28;20216;-79
2022/12/19 19:16:29;;;;;;;12.98;8.20;;;;;;;;;;10294570;28;20217;-79
2022/12/19 19:21:32;;;;;;;12.40;7.85;;;;;;;;;;10302173;28;20224;-78
2022/12/19 19:26:34;;;;;;;12.05;7.38;;;;;;;;;;10318024;28;20279;-78
2022/12/19 19:31:36;;;;;;;13.45;7.63;;;;;;;;;;10293770;28;20217;-78
2022/12/19 19:36:39;;;;;;;13.73;8.25;;;;;;;;;;10287625;28;20216;-77
2022/12/19 19:41:40;;;;;;;13.40;7.22;;;;;;;;;;10299274;28;20232;-78
2022/12/19 19:46:41;;;;;;;11.68;6.78;;;;;;;;;;10298637;28;20217;-78
2022/12/19 19:51:42;;;;;;;11.50;7.40;;;;;;;;;;10314138;28;20518;-78
2022/12/19 19:56:44;;;;;;;12.48;6.78;;;;;;;;;;10315647;28;20525;-78
2022/12/19 20:01:45;;;;;;;14.00;7.60;;;;;;;;;;10296006;28;20247;-79
2022/12/19 20:06:46;;;;;;;13.20;7.35;;;;;;;;;;10298248;28;20221;-79
2022/12/19 20:11:47;;;;;;;12.55;7.68;;;;;;;;;;10314100;28;20224;-78
2022/12/19 20:16:48;;;;;;;12.23;7.57;;;;;;;;;;10316004;28;20224;-79
2022/12/19 20:21:50;;;;;;;13.68;7.28;;;;;;;;;;10313261;28;20227;-78
2022/12/19 20:26:51;;;;;;;14.13;7.80;;;;;;;;;;10290174;28;20240;-77
2022/12/19 20:31:52;;;;;;;12.55;6.97;;;;;;;;;;10317769;28;20275;-77
2022/12/19 20:36:53;;;;;;;13.00;7.18;;;;;;;;;;10298232;28;20356;-77
2022/12/19 20:41:54;;;;;;;9.48;6.03;;;;;;;;;;10298802;28;20217;-77
2022/12/19 20:46:56;;;;;;;10.35;6.90;;;;;;;;;;10315645;28;20796;-77
2022/12/19 20:51:57;;;;;;;12.25;6.25;;;;;;;;;;10300039;28;20248;-77
2022/12/19 20:56:58;;;;;;;6.85;6.05;;;;;;;;;;10304359;28;20217;-78
2022/12/19 21:02:01;;;;;;;10.75;6.50;;;;;;;;;;10293205;28;20233;-78
2022/12/19 21:07:02;;;;;;;8.60;5.75;;;;;;;;;;10236006;28;20222;-78
2022/12/19 21:12:03;;;;;;;10.82;6.20;;;;;;;;;;10238708;28;20215;-77
2022/12/19 21:17:04;;;;;;;6.40;5.75;;;;;;;;;;10230352;28;20214;-78
2022/12/19 21:22:05;;;;;;;7.82;5.20;;;;;;;;;;10242479;28;20610;-76
2022/12/19 21:27:06;;;;;;;8.65;5.13;;;;;;;;;;10227268;28;20222;-79
2022/12/19 21:32:08;;;;;;;10.90;5.85;;;;;;;;;;10242780;28;20227;-76
2022/12/19 21:37:09;;;;;;;7.20;5.50;;;;;;;;;;10279513;28;20247;-78
2022/12/19 21:42:10;;;;;;;7.85;5.88;;;;;;;;;;10264483;28;20218;-78
2022/12/19 21:47:11;;;;;;;6.95;5.53;;;;;;;;;;10285882;28;20968;-79
2022/12/19 21:52:12;;;;;;;8.45;5.65;;;;;;;;;;10266121;28;20712;-79
2022/12/19 21:57:13;;;;;;;9.98;5.70;;;;;;;;;;10284457;28;20296;-78
2022/12/19 22:02:14;;;;;;;8.45;5.88;;;;;;;;;;10301968;28;20720;-79
2022/12/19 22:07:15;;;;;;;7.53;6.10;;;;;;;;;;10298365;28;20242;-78
2022/12/19 22:12:16;;;;;;;7.10;5.50;;;;;;;;;;10311421;28;20212;-79
2022/12/19 22:17:17;;;;;;;7.22;6.13;;;;;;;;;;10329655;28;20327;-78
2022/12/19 22:22:19;;;;;;;5.72;4.97;;;;;;;;;;10322243;28;20209;-79
2022/12/19 22:27:20;;;;;;;9.88;5.43;;;;;;;;;;10307040;28;21416;-79
2022/12/19 22:32:21;;;;;;;9.77;5.50;;;;;;;;;;10310578;28;21459;-78
2022/12/19 22:37:22;;;;;;;9.73;5.32;;;;;;;;;;10307978;28;20212;-79
2022/12/19 22:42:23;;;;;;;8.55;5.25;;;;;;;;;;10306403;28;21106;-78
2022/12/19 22:47:24;;;;;;;6.50;5.18;;;;;;;;;;10306403;28;20716;-79
2022/12/19 22:52:25;;;;;;;7.75;4.53;;;;;;;;;;10305565;28;20228;-78
2022/12/19 22:57:26;;;;;;;6.50;5.22;;;;;;;;;;10321456;28;20323;-79
2022/12/19 23:02:27;;;;;;;6.75;4.57;;;;;;;;;;10303938;28;23788;-76
2022/12/19 23:07:28;;;;;;;7.82;5.53;;;;;;;;;;10301643;28;20891;-77
2022/12/19 23:12:29;;;;;;;9.98;6.13;;;;;;;;;;10298994;28;23712;-76
2022/12/19 23:17:30;;;;;;;9.25;5.80;;;;;;;;;;10285193;28;20253;-77
2022/12/19 23:22:31;;;;;;;8.18;4.55;;;;;;;;;;10300862;28;20245;-76
2022/12/19 23:27:32;;;;;;;9.65;5.32;;;;;;;;;;10312853;28;20331;-77
2022/12/19 23:32:34;;;;;;;8.05;4.93;;;;;;;;;;10316397;28;20220;-78
2022/12/19 23:37:35;;;;;;;6.88;5.22;;;;;;;;;;10287771;28;20803;-77
2022/12/19 23:42:36;;;;;;;7.47;4.70;;;;;;;;;;10313137;28;20307;-78
2022/12/19 23:47:37;;;;;;;7.40;5.75;;;;;;;;;;10303557;28;20224;-77
2022/12/19 23:52:38;;;;;;;5.68;4.32;;;;;;;;;;10318936;28;20227;-78
2022/12/19 23:57:39;;;;;;;4.85;4.20;;;;;;;;;;10317782;28;20291;-77
